createdAt,value
2023-05-23T00:00:27.569Z,65.88
2023-05-23T00:01:00.636Z,66.88
2023-05-23T00:01:32.297Z,66.80
2023-05-23T00:02:09.420Z,66.93
2023-05-23T00:02:42.876Z,66.20
2023-05-23T00:03:16.375Z,66.60
2023-05-23T00:03:49.386Z,67.45
2023-05-23T00:04:22.295Z,66.88
2023-05-23T00:04:58.367Z,65.18
2023-05-23T00:05:30.065Z,66.23
2023-05-23T00:06:04.602Z,66.32
2023-05-23T00:06:38.975Z,66.82
2023-05-23T00:07:12.243Z,66.95
2023-05-23T00:07:44.981Z,66.78
2023-05-23T00:08:16.860Z,67.38
2023-05-23T00:08:48.858Z,67.22
2023-05-23T00:09:20.629Z,67.13
2023-05-23T00:09:53.324Z,66.18
2023-05-23T00:10:25.002Z,65.30
2023-05-23T00:10:56.712Z,67.18
2023-05-23T00:11:29.218Z,65.15
2023-05-23T00:12:01.966Z,67.90
2023-05-23T00:12:33.726Z,66.18
2023-05-23T00:13:05.653Z,67.03
2023-05-23T00:13:39.764Z,65.93
2023-05-23T00:14:11.777Z,67.05
2023-05-23T00:14:43.455Z,66.22
2023-05-23T00:15:16.160Z,65.80
2023-05-23T00:15:49.685Z,65.50
2023-05-23T00:16:21.689Z,66.38
2023-05-23T00:16:55.160Z,65.93
2023-05-23T00:17:26.990Z,67.03
2023-05-23T00:18:00.230Z,67.78
2023-05-23T00:18:32.174Z,67.57
2023-05-23T00:19:05.385Z,68.13
2023-05-23T00:19:37.166Z,68.18
2023-05-23T00:20:09.714Z,67.07
2023-05-23T00:20:42.804Z,65.38
2023-05-23T00:21:14.461Z,68.72
2023-05-23T00:21:48.607Z,66.65
2023-05-23T00:22:22.726Z,67.22
2023-05-23T00:22:54.505Z,66.40
2023-05-23T00:23:26.265Z,66.93
2023-05-23T00:23:59.677Z,68.68
2023-05-23T00:24:31.335Z,66.22
2023-05-23T00:25:03.016Z,66.60
2023-05-23T00:25:35.805Z,66.22
2023-05-23T00:26:07.682Z,67.22
2023-05-23T00:26:39.406Z,65.70
2023-05-23T00:27:12.080Z,66.47
2023-05-23T00:27:43.759Z,67.18
2023-05-23T00:28:16.068Z,66.45
2023-05-23T00:28:47.747Z,66.80
2023-05-23T00:29:20.526Z,67.67
2023-05-23T00:29:52.275Z,67.43
2023-05-23T00:30:23.975Z,66.70
2023-05-23T00:30:56.676Z,66.95
2023-05-23T00:31:28.999Z,65.18
2023-05-23T00:32:00.749Z,65.38
2023-05-23T00:32:33.406Z,68.40
2023-05-23T00:33:05.170Z,68.05
2023-05-23T00:33:36.949Z,66.60
2023-05-23T00:34:09.743Z,67.78
2023-05-23T00:34:41.518Z,66.32
2023-05-23T00:35:13.190Z,67.00
2023-05-23T00:35:45.890Z,65.95
2023-05-23T00:36:18.533Z,67.75
2023-05-23T00:36:50.458Z,67.65
2023-05-23T00:37:24.682Z,65.95
2023-05-23T00:37:56.410Z,67.13
2023-05-23T00:38:28.541Z,66.95
2023-05-23T00:39:02.387Z,66.68
2023-05-23T00:39:34.310Z,66.90
2023-05-23T00:40:06.989Z,67.55
2023-05-23T00:40:38.754Z,65.40
2023-05-23T00:41:11.454Z,67.82
2023-05-23T00:41:43.130Z,66.75
2023-05-23T00:42:14.872Z,66.70
2023-05-23T00:42:47.511Z,67.47
2023-05-23T00:43:21.296Z,65.03
2023-05-23T00:43:52.964Z,65.20
2023-05-23T00:44:25.199Z,66.90
2023-05-23T00:44:57.844Z,66.65
2023-05-23T00:45:29.591Z,68.22
2023-05-23T00:46:01.363Z,66.22
2023-05-23T00:46:34.206Z,66.82
2023-05-23T00:47:07.170Z,65.70
2023-05-23T00:47:39.638Z,67.65
2023-05-23T00:48:12.321Z,66.10
2023-05-23T00:48:44.084Z,66.68
2023-05-23T00:49:16.142Z,67.07
2023-05-23T00:49:49.542Z,66.05
2023-05-23T00:50:21.381Z,66.85
2023-05-23T00:50:53.241Z,65.95
2023-05-23T00:51:25.984Z,67.50
2023-05-23T00:51:57.850Z,65.97
2023-05-23T00:52:30.927Z,66.43
2023-05-23T00:53:03.637Z,67.13
2023-05-23T00:53:35.541Z,65.15
2023-05-23T00:54:07.514Z,68.82
2023-05-23T00:54:40.417Z,67.55
2023-05-23T00:55:12.342Z,65.43
2023-05-23T00:55:44.286Z,65.57
2023-05-23T00:56:16.936Z,66.50
2023-05-23T00:56:49.621Z,65.90
2023-05-23T00:57:22.667Z,67.88
2023-05-23T00:57:57.228Z,64.72
2023-05-23T00:58:29.142Z,66.38
2023-05-23T00:59:01.047Z,64.38
2023-05-23T00:59:34.602Z,67.13
2023-05-23T01:00:10.135Z,66.47
2023-05-23T01:00:42.361Z,67.13
2023-05-23T01:01:16.288Z,66.07
2023-05-23T01:01:48.787Z,65.93
2023-05-23T01:02:21.764Z,65.93
2023-05-23T01:02:54.950Z,65.78
2023-05-23T01:03:28.770Z,64.60
2023-05-23T01:04:03.114Z,67.07
2023-05-23T01:04:36.869Z,66.25
2023-05-23T01:05:09.552Z,65.97
2023-05-23T01:05:42.020Z,65.72
2023-05-23T01:06:14.965Z,65.75
2023-05-23T01:06:49.075Z,66.38
2023-05-23T01:07:20.929Z,66.18
2023-05-23T01:07:55.788Z,65.30
2023-05-23T01:08:29.049Z,65.93
2023-05-23T01:09:02.926Z,67.70
2023-05-23T01:09:35.680Z,65.55
2023-05-23T01:10:08.225Z,64.82
2023-05-23T01:10:40.144Z,64.82
2023-05-23T01:11:15.903Z,66.35
2023-05-23T01:11:52.175Z,64.65
2023-05-23T01:12:26.913Z,66.35
2023-05-23T01:13:04.874Z,67.03
2023-05-23T01:13:40.405Z,66.75
2023-05-23T01:14:15.379Z,65.80
2023-05-23T01:14:50.899Z,67.90
2023-05-23T01:15:24.234Z,66.40
2023-05-23T01:15:59.206Z,65.15
2023-05-23T01:16:37.189Z,67.38
2023-05-23T01:17:11.806Z,66.65
2023-05-23T01:17:45.663Z,64.50
2023-05-23T01:18:20.132Z,65.60
2023-05-23T01:18:57.999Z,65.40
2023-05-23T01:19:43.884Z,64.22
2023-05-23T01:20:18.420Z,67.28
2023-05-23T01:20:52.572Z,65.88
2023-05-23T01:21:24.975Z,66.25
2023-05-23T01:22:00.376Z,66.40
2023-05-23T01:22:48.705Z,65.18
2023-05-23T01:23:36.381Z,65.43
2023-05-23T01:24:15.937Z,65.05
2023-05-23T01:24:50.981Z,65.05
2023-05-23T01:25:27.807Z,65.05
2023-05-23T01:26:16.791Z,66.03
2023-05-23T01:26:58.387Z,66.53
2023-05-23T01:27:38.048Z,64.88
2023-05-23T01:28:13.887Z,67.07
2023-05-23T01:28:46.741Z,67.00
2023-05-23T01:29:21.262Z,66.10
2023-05-23T01:29:58.817Z,65.38
2023-05-23T01:30:31.991Z,64.68
2023-05-23T01:31:04.400Z,65.43
2023-05-23T01:31:38.175Z,65.22
2023-05-23T01:32:12.020Z,66.03
2023-05-23T01:32:44.040Z,65.85
2023-05-23T01:33:17.647Z,64.85
2023-05-23T01:33:50.232Z,64.65
2023-05-23T01:34:22.218Z,65.68
2023-05-23T01:34:55.269Z,65.40
2023-05-23T01:35:27.664Z,65.10
2023-05-23T01:36:01.747Z,65.25
2023-05-23T01:36:35.404Z,65.80
2023-05-23T01:37:08.532Z,64.85
2023-05-23T01:37:41.388Z,63.80
2023-05-23T01:38:14.016Z,64.65
2023-05-23T01:38:45.670Z,65.95
2023-05-23T01:39:17.335Z,65.72
2023-05-23T01:39:50.124Z,65.13
2023-05-23T01:40:28.398Z,65.47
2023-05-23T01:41:00.152Z,64.82
2023-05-23T01:41:32.817Z,65.70
2023-05-23T01:42:04.787Z,64.82
2023-05-23T01:42:38.738Z,66.32
2023-05-23T01:43:11.721Z,64.25
2023-05-23T01:43:43.398Z,64.82
2023-05-23T01:44:15.599Z,64.63
2023-05-23T01:44:48.687Z,63.72
2023-05-23T01:45:20.693Z,65.63
2023-05-23T01:45:53.941Z,65.82
2023-05-23T01:46:28.344Z,64.05
2023-05-23T01:47:00.970Z,64.40
2023-05-23T01:47:33.165Z,65.70
2023-05-23T01:48:07.102Z,66.68
2023-05-23T01:48:38.917Z,64.78
2023-05-23T01:49:11.891Z,65.78
2023-05-23T01:49:45.044Z,63.97
2023-05-23T01:50:18.078Z,65.10
2023-05-23T01:50:50.262Z,65.00
2023-05-23T01:51:22.256Z,65.43
2023-05-23T01:51:55.082Z,64.90
2023-05-23T01:52:26.824Z,67.00
2023-05-23T01:52:59.481Z,64.40
2023-05-23T01:53:33.223Z,65.03
2023-05-23T01:54:05.438Z,64.45
2023-05-23T01:54:37.849Z,65.22
2023-05-23T01:55:11.914Z,65.38
2023-05-23T01:55:44.935Z,64.90
2023-05-23T01:56:16.865Z,64.13
2023-05-23T01:56:49.706Z,65.28
2023-05-23T01:57:21.528Z,64.72
2023-05-23T01:57:55.745Z,65.07
2023-05-23T01:58:28.434Z,65.18
2023-05-23T01:59:00.403Z,64.72
2023-05-23T01:59:32.162Z,66.65
2023-05-23T02:00:06.308Z,63.60
2023-05-23T02:00:46.085Z,66.32
2023-05-23T02:01:18.002Z,65.18
2023-05-23T02:01:49.718Z,63.35
2023-05-23T02:02:23.347Z,64.82
2023-05-23T02:02:55.201Z,63.92
2023-05-23T02:03:27.790Z,65.43
2023-05-23T02:04:00.734Z,65.53
2023-05-23T02:04:32.388Z,64.93
2023-05-23T02:05:04.266Z,63.85
2023-05-23T02:05:36.128Z,64.32
2023-05-23T02:06:08.922Z,63.58
2023-05-23T02:06:41.813Z,65.10
2023-05-23T02:07:23.063Z,63.95
2023-05-23T02:07:55.733Z,65.38
2023-05-23T02:08:27.443Z,64.88
2023-05-23T02:08:59.118Z,64.10
2023-05-23T02:09:31.756Z,66.00
2023-05-23T02:10:03.720Z,64.95
2023-05-23T02:10:35.467Z,63.70
2023-05-23T02:11:08.836Z,66.68
2023-05-23T02:11:40.619Z,63.65
2023-05-23T02:12:12.407Z,65.90
2023-05-23T02:12:45.043Z,65.65
2023-05-23T02:13:18.075Z,63.95
2023-05-23T02:13:49.829Z,64.82
2023-05-23T02:14:22.496Z,63.65
2023-05-23T02:14:54.973Z,64.72
2023-05-23T02:15:26.713Z,64.90
2023-05-23T02:15:59.353Z,65.25
2023-05-23T02:16:31.103Z,64.18
2023-05-23T02:17:02.960Z,64.05
2023-05-23T02:17:35.909Z,65.05
2023-05-23T02:18:07.977Z,64.40
2023-05-23T02:18:46.230Z,63.63
2023-05-23T02:19:18.020Z,64.30
2023-05-23T02:19:52.423Z,65.45
2023-05-23T02:20:24.064Z,63.78
2023-05-23T02:20:56.279Z,65.10
2023-05-23T02:21:28.983Z,63.88
2023-05-23T02:22:01.944Z,65.00
2023-05-23T02:22:33.630Z,64.68
2023-05-23T02:23:06.284Z,65.25
2023-05-23T02:23:38.004Z,64.33
2023-05-23T02:24:09.651Z,64.40
2023-05-23T02:24:42.984Z,64.57
2023-05-23T02:25:15.747Z,64.20
2023-05-23T02:25:47.453Z,64.78
2023-05-23T02:26:20.216Z,63.60
2023-05-23T02:26:52.861Z,63.75
2023-05-23T02:27:24.524Z,64.10
2023-05-23T02:27:57.172Z,64.70
2023-05-23T02:28:30.321Z,64.22
2023-05-23T02:29:02.071Z,64.90
2023-05-23T02:29:35.103Z,63.90
2023-05-23T02:30:07.718Z,64.45
2023-05-23T02:30:39.693Z,64.72
2023-05-23T02:31:12.396Z,63.67
2023-05-23T02:31:44.288Z,63.85
2023-05-23T02:32:16.040Z,63.72
2023-05-23T02:32:47.819Z,62.90
2023-05-23T02:33:20.736Z,65.10
2023-05-23T02:33:52.436Z,64.65
2023-05-23T02:34:24.776Z,64.15
2023-05-23T02:34:58.189Z,64.80
2023-05-23T02:35:29.916Z,63.60
2023-05-23T02:36:03.628Z,63.47
2023-05-23T02:36:37.137Z,64.53
2023-05-23T02:37:09.074Z,63.60
2023-05-23T02:37:42.394Z,64.80
2023-05-23T02:38:15.311Z,63.50
2023-05-23T02:38:47.031Z,63.38
2023-05-23T02:39:18.720Z,65.07
2023-05-23T02:39:52.290Z,65.03
2023-05-23T02:40:24.088Z,63.42
2023-05-23T02:40:57.607Z,65.43
2023-05-23T02:41:30.529Z,62.90
2023-05-23T02:42:02.935Z,63.78
2023-05-23T02:42:34.727Z,63.47
2023-05-23T02:43:07.407Z,63.75
2023-05-23T02:43:41.925Z,63.95
2023-05-23T02:44:13.607Z,63.88
2023-05-23T02:44:46.230Z,64.75
2023-05-23T02:45:18.366Z,64.30
2023-05-23T02:45:50.076Z,64.93
2023-05-23T02:46:23.005Z,63.08
2023-05-23T02:46:54.770Z,64.15
2023-05-23T02:47:26.467Z,62.70
2023-05-23T02:47:59.233Z,64.50
2023-05-23T02:48:30.952Z,65.75
2023-05-23T02:49:02.777Z,64.53
2023-05-23T02:49:35.618Z,64.18
2023-05-23T02:50:07.971Z,63.40
2023-05-23T02:50:39.664Z,65.07
2023-05-23T02:51:11.383Z,63.15
2023-05-23T02:51:44.023Z,63.78
2023-05-23T02:52:15.742Z,63.63
2023-05-23T02:52:47.396Z,64.97
2023-05-23T02:53:20.344Z,63.90
2023-05-23T02:53:52.108Z,64.18
2023-05-23T02:54:24.246Z,65.20
2023-05-23T02:54:57.049Z,64.65
2023-05-23T02:55:28.955Z,64.77
2023-05-23T02:56:00.621Z,64.18
2023-05-23T02:56:33.404Z,64.00
2023-05-23T02:57:05.165Z,65.03
2023-05-23T02:57:39.875Z,64.25
2023-05-23T02:58:12.507Z,64.40
2023-05-23T02:58:45.757Z,64.32
2023-05-23T02:59:17.944Z,64.65
2023-05-23T02:59:49.665Z,64.50
2023-05-23T03:00:22.489Z,65.65
2023-05-23T03:00:58.522Z,63.55
2023-05-23T03:01:30.565Z,64.32
2023-05-23T03:02:03.378Z,63.80
2023-05-23T03:02:35.196Z,64.72
2023-05-23T03:03:07.014Z,63.90
2023-05-23T03:03:40.013Z,64.72
2023-05-23T03:04:13.743Z,64.38
2023-05-23T03:04:46.381Z,64.35
2023-05-23T03:05:19.618Z,64.25
2023-05-23T03:05:51.562Z,63.80
2023-05-23T03:06:23.225Z,64.28
2023-05-23T03:06:55.830Z,65.15
2023-05-23T03:07:28.804Z,64.43
2023-05-23T03:08:01.046Z,64.07
2023-05-23T03:08:32.797Z,65.05
2023-05-23T03:09:06.087Z,63.92
2023-05-23T03:09:38.534Z,63.83
2023-05-23T03:10:10.733Z,65.35
2023-05-23T03:10:44.444Z,65.10
2023-05-23T03:11:16.618Z,64.50
2023-05-23T03:11:52.064Z,64.07
2023-05-23T03:12:24.177Z,64.95
2023-05-23T03:12:57.831Z,64.28
2023-05-23T03:13:30.819Z,64.20
2023-05-23T03:14:04.515Z,63.90
2023-05-23T03:14:37.526Z,65.60
2023-05-23T03:15:12.250Z,64.03
2023-05-23T03:15:46.956Z,64.38
2023-05-23T03:16:20.367Z,62.95
2023-05-23T03:16:52.135Z,64.28
2023-05-23T03:17:24.982Z,64.95
2023-05-23T03:17:58.879Z,66.32
2023-05-23T03:18:30.743Z,63.05
2023-05-23T03:19:02.981Z,64.30
2023-05-23T03:19:36.603Z,64.05
2023-05-23T03:20:10.343Z,65.13
2023-05-23T03:20:44.340Z,64.05
2023-05-23T03:21:16.408Z,63.70
2023-05-23T03:21:58.449Z,63.95
2023-05-23T03:22:33.275Z,65.03
2023-05-23T03:23:11.170Z,64.15
2023-05-23T03:23:45.519Z,64.60
2023-05-23T03:24:22.432Z,64.50
2023-05-23T03:24:55.223Z,63.67
2023-05-23T03:25:28.141Z,65.43
2023-05-23T03:25:59.862Z,64.17
2023-05-23T03:26:32.608Z,64.85
2023-05-23T03:27:05.954Z,63.15
2023-05-23T03:27:42.796Z,63.90
2023-05-23T03:28:17.985Z,64.38
2023-05-23T03:28:51.592Z,64.70
2023-05-23T03:29:27.431Z,66.22
2023-05-23T03:32:00.780Z,63.00
2023-05-23T03:33:07.413Z,64.10
2023-05-23T03:33:40.785Z,64.18
2023-05-23T03:34:13.290Z,65.70
2023-05-23T03:34:44.982Z,64.10
2023-05-23T03:35:17.806Z,65.90
2023-05-23T03:35:54.846Z,66.07
2023-05-23T03:36:28.390Z,64.90
2023-05-23T03:37:00.775Z,65.45
2023-05-23T03:37:32.486Z,64.90
2023-05-23T03:38:05.545Z,64.70
2023-05-23T03:38:37.562Z,65.07
2023-05-23T03:39:09.192Z,64.75
2023-05-23T03:39:41.894Z,65.25
2023-05-23T03:40:13.673Z,65.40
2023-05-23T03:40:45.794Z,64.40
2023-05-23T03:41:18.504Z,66.10
2023-05-23T03:41:51.150Z,64.15
2023-05-23T03:42:23.086Z,66.13
2023-05-23T03:43:04.715Z,64.35
2023-05-23T03:43:38.513Z,64.72
2023-05-23T03:44:10.237Z,64.18
2023-05-23T03:44:43.328Z,64.38
2023-05-23T03:45:16.770Z,65.53
2023-05-23T03:45:48.731Z,67.25
2023-05-23T03:46:22.527Z,65.63
2023-05-23T03:46:55.312Z,65.35
2023-05-23T03:47:26.994Z,63.92
2023-05-23T03:48:01.584Z,66.10
2023-05-23T03:48:34.357Z,65.32
2023-05-23T03:49:06.257Z,65.90
2023-05-23T03:49:38.032Z,67.25
2023-05-23T03:50:10.368Z,64.22
2023-05-23T03:50:43.556Z,63.47
2023-05-23T03:51:16.493Z,63.88
2023-05-23T03:51:48.321Z,64.97
2023-05-23T03:52:22.524Z,64.60
2023-05-23T03:52:54.834Z,64.40
2023-05-23T03:53:27.137Z,63.45
2023-05-23T03:54:00.761Z,66.20
2023-05-23T03:54:34.464Z,65.00
2023-05-23T03:55:06.750Z,64.10
2023-05-23T03:55:40.023Z,64.35
2023-05-23T03:56:11.902Z,65.35
2023-05-23T03:56:43.742Z,65.00
2023-05-23T03:57:16.416Z,65.13
2023-05-23T03:57:48.263Z,65.75
2023-05-23T03:58:19.983Z,64.93
2023-05-23T03:58:56.414Z,65.32
2023-05-23T03:59:28.114Z,63.78
2023-05-23T04:00:01.226Z,64.65
2023-05-23T04:00:33.996Z,63.80
2023-05-23T04:01:07.685Z,67.10
2023-05-23T04:01:39.730Z,65.03
2023-05-23T04:02:12.627Z,66.78
2023-05-23T04:02:44.607Z,64.57
2023-05-23T04:03:20.271Z,65.05
2023-05-23T04:03:53.694Z,65.38
2023-05-23T04:04:26.866Z,65.15
2023-05-23T04:04:58.905Z,66.85
2023-05-23T04:05:30.628Z,66.50
2023-05-23T04:06:03.357Z,64.90
2023-05-23T04:06:35.119Z,66.10
2023-05-23T04:07:06.819Z,66.72
2023-05-23T04:07:40.327Z,65.78
2023-05-23T04:08:13.836Z,65.97
2023-05-23T04:08:45.581Z,65.85
2023-05-23T04:09:17.254Z,67.43
2023-05-23T04:09:52.766Z,64.97
2023-05-23T04:10:24.435Z,65.35
2023-05-23T04:10:56.236Z,65.72
2023-05-23T04:11:31.223Z,64.45
2023-05-23T04:12:02.990Z,64.70
2023-05-23T04:12:35.503Z,66.40
2023-05-23T04:13:09.689Z,65.03
2023-05-23T04:13:43.784Z,65.38
2023-05-23T04:14:16.143Z,65.40
2023-05-23T04:14:50.244Z,64.13
2023-05-23T04:15:23.425Z,65.00
2023-05-23T04:16:09.893Z,64.57
2023-05-23T04:16:44.763Z,64.50
2023-05-23T04:17:17.103Z,65.20
2023-05-23T04:17:48.915Z,65.82
2023-05-23T04:18:22.108Z,66.63
2023-05-23T04:18:54.392Z,64.25
2023-05-23T04:19:26.849Z,65.20
2023-05-23T04:19:59.605Z,64.72
2023-05-23T04:20:31.517Z,65.70
2023-05-23T04:21:04.068Z,65.43
2023-05-23T04:21:38.067Z,65.15
2023-05-23T04:22:13.012Z,65.05
2023-05-23T04:22:44.723Z,64.55
2023-05-23T04:23:17.401Z,65.07
2023-05-23T04:23:53.064Z,64.63
2023-05-23T04:24:24.754Z,64.78
2023-05-23T04:24:57.562Z,63.63
2023-05-23T04:25:30.115Z,63.13
2023-05-23T04:26:31.800Z,64.67
2023-05-23T04:27:03.757Z,65.30
2023-05-23T04:27:35.963Z,65.18
2023-05-23T04:28:10.596Z,65.07
2023-05-23T04:28:43.942Z,65.75
2023-05-23T04:29:16.936Z,65.15
2023-05-23T04:29:49.699Z,64.78
2023-05-23T04:30:22.269Z,64.47
2023-05-23T04:30:56.496Z,65.03
2023-05-23T04:31:33.889Z,65.13
2023-05-23T04:32:06.305Z,64.50
2023-05-23T04:32:38.500Z,63.95
2023-05-23T04:33:11.909Z,64.60
2023-05-23T04:33:44.794Z,64.60
2023-05-23T04:34:17.284Z,63.80
2023-05-23T04:34:50.129Z,64.60
2023-05-23T04:35:23.009Z,65.57
2023-05-23T04:35:55.254Z,65.07
2023-05-23T04:36:28.075Z,64.95
2023-05-23T04:37:02.162Z,64.63
2023-05-23T04:37:34.090Z,64.68
2023-05-23T04:38:07.344Z,63.60
2023-05-23T04:38:41.071Z,65.07
2023-05-23T04:39:14.104Z,64.65
2023-05-23T04:39:56.640Z,66.82
2023-05-23T04:40:49.397Z,64.30
2023-05-23T04:41:42.447Z,65.07
2023-05-23T04:42:25.610Z,65.28
2023-05-23T04:43:26.698Z,65.57
2023-05-23T04:44:02.097Z,64.32
2023-05-23T04:44:38.178Z,65.47
2023-05-23T04:45:20.791Z,65.28
2023-05-23T04:46:14.127Z,64.13
2023-05-23T04:46:50.345Z,65.45
2023-05-23T04:47:29.398Z,63.45
2023-05-23T04:48:09.004Z,64.47
2023-05-23T04:48:45.862Z,64.82
2023-05-23T04:49:35.174Z,64.93
2023-05-23T04:50:12.825Z,64.40
2023-05-23T04:50:47.526Z,64.70
2023-05-23T04:51:21.665Z,63.72
2023-05-23T04:52:00.040Z,63.58
2023-05-23T04:52:34.141Z,64.63
2023-05-23T04:53:07.479Z,63.78
2023-05-23T04:53:41.239Z,63.97
2023-05-23T04:54:14.639Z,63.28
2023-05-23T04:54:48.780Z,63.30
2023-05-23T04:55:21.460Z,64.60
2023-05-23T04:55:53.299Z,64.22
2023-05-23T04:56:31.189Z,64.05
2023-05-23T04:57:02.927Z,64.35
2023-05-23T04:57:35.044Z,63.72
2023-05-23T04:58:09.795Z,64.85
2023-05-23T04:58:42.222Z,62.83
2023-05-23T04:59:15.631Z,64.28
2023-05-23T04:59:48.286Z,64.03
2023-05-23T05:00:20.459Z,63.42
2023-05-23T05:00:52.243Z,64.22
2023-05-23T05:01:28.776Z,64.18
2023-05-23T05:02:00.809Z,63.80
2023-05-23T05:02:35.325Z,63.55
2023-05-23T05:03:09.928Z,64.75
2023-05-23T05:03:45.989Z,62.83
2023-05-23T05:04:17.873Z,63.20
2023-05-23T05:04:51.309Z,64.03
2023-05-23T05:05:22.994Z,63.50
2023-05-23T05:05:54.824Z,63.50
2023-05-23T05:06:28.869Z,63.60
2023-05-23T05:07:00.648Z,63.20
2023-05-23T05:07:32.724Z,64.30
2023-05-23T05:08:07.725Z,62.92
2023-05-23T05:08:40.911Z,63.38
2023-05-23T05:09:13.473Z,62.88
2023-05-23T05:09:47.728Z,63.20
2023-05-23T05:10:20.260Z,63.63
2023-05-23T05:10:51.986Z,63.33
2023-05-23T05:11:26.740Z,62.45
2023-05-23T05:11:59.755Z,63.20
2023-05-23T05:12:31.512Z,64.10
2023-05-23T05:13:04.156Z,62.92
2023-05-23T05:13:44.808Z,63.33
2023-05-23T05:14:17.542Z,62.92
2023-05-23T05:14:49.175Z,63.57
2023-05-23T05:15:21.874Z,63.53
2023-05-23T05:15:58.932Z,63.70
2023-05-23T05:16:32.431Z,63.67
2023-05-23T05:17:06.838Z,63.72
2023-05-23T05:17:49.604Z,63.53
2023-05-23T05:18:24.734Z,64.18
2023-05-23T05:18:57.375Z,62.72
2023-05-23T05:19:29.105Z,63.10
2023-05-23T05:20:01.889Z,64.25
2023-05-23T05:20:33.554Z,63.97
2023-05-23T05:21:08.162Z,61.95
2023-05-23T05:21:41.828Z,62.83
2023-05-23T05:22:13.471Z,62.55
2023-05-23T05:22:46.815Z,62.22
2023-05-23T05:23:18.707Z,62.75
2023-05-23T05:23:51.491Z,62.92
2023-05-23T05:24:24.204Z,63.42
2023-05-23T05:24:55.863Z,63.33
2023-05-23T05:25:31.894Z,62.65
2023-05-23T05:26:05.252Z,63.13
2023-05-23T05:26:37.115Z,62.92
2023-05-23T05:27:09.578Z,63.10
2023-05-23T05:27:43.677Z,62.35
2023-05-23T05:28:17.909Z,62.92
2023-05-23T05:28:54.569Z,63.30
2023-05-23T05:29:27.125Z,62.92
2023-05-23T05:30:04.111Z,62.47
2023-05-23T05:30:42.335Z,62.77
2023-05-23T05:31:15.399Z,62.95
2023-05-23T05:31:50.228Z,62.15
2023-05-23T05:32:22.492Z,62.33
2023-05-23T05:32:58.163Z,63.03
2023-05-23T05:33:35.826Z,62.38
2023-05-23T05:34:13.146Z,63.13
2023-05-23T05:34:47.006Z,62.22
2023-05-23T05:35:21.374Z,64.15
2023-05-23T05:35:53.420Z,63.40
2023-05-23T05:36:26.900Z,63.50
2023-05-23T05:36:59.881Z,62.80
2023-05-23T05:37:31.547Z,63.15
2023-05-23T05:38:04.825Z,63.45
2023-05-23T05:38:37.750Z,63.72
2023-05-23T05:39:09.408Z,63.60
2023-05-23T05:39:41.536Z,63.17
2023-05-23T05:40:14.266Z,62.47
2023-05-23T05:40:48.748Z,63.60
2023-05-23T05:41:22.140Z,63.78
2023-05-23T05:41:57.104Z,63.63
2023-05-23T05:42:28.792Z,62.97
2023-05-23T05:43:00.523Z,63.60
2023-05-23T05:43:33.187Z,63.92
2023-05-23T05:44:04.937Z,63.25
2023-05-23T05:44:36.645Z,64.47
2023-05-23T05:45:09.583Z,62.60
2023-05-23T05:45:41.901Z,63.72
2023-05-23T05:46:14.804Z,64.15
2023-05-23T05:46:46.761Z,63.60
2023-05-23T05:47:20.828Z,63.90
2023-05-23T05:47:52.710Z,62.80
2023-05-23T05:48:26.205Z,64.00
2023-05-23T05:49:01.174Z,63.47
2023-05-23T05:49:32.955Z,64.32
2023-05-23T05:50:05.947Z,62.58
2023-05-23T05:50:37.609Z,64.45
2023-05-23T05:51:10.548Z,65.30
2023-05-23T05:51:43.150Z,63.17
2023-05-23T05:52:14.861Z,62.63
2023-05-23T05:52:47.494Z,65.22
2023-05-23T05:53:19.240Z,63.58
2023-05-23T05:53:52.127Z,63.55
2023-05-23T05:54:24.040Z,64.00
2023-05-23T05:54:57.821Z,64.00
2023-05-23T05:55:29.588Z,63.03
2023-05-23T05:56:02.238Z,63.38
2023-05-23T05:56:35.919Z,63.97
2023-05-23T05:57:07.849Z,63.60
2023-05-23T05:57:39.872Z,63.67
2023-05-23T05:58:12.613Z,63.40
2023-05-23T05:58:55.188Z,63.10
2023-05-23T05:59:29.471Z,63.47
2023-05-23T06:00:03.496Z,62.90
2023-05-23T06:00:42.214Z,64.80
2023-05-23T06:01:15.309Z,62.80
2023-05-23T06:01:47.351Z,64.18
2023-05-23T06:02:21.658Z,64.63
2023-05-23T06:02:57.292Z,64.73
2023-05-23T06:03:45.228Z,64.65
2023-05-23T06:04:17.266Z,64.53
2023-05-23T06:04:49.349Z,63.30
2023-05-23T06:05:22.099Z,64.15
2023-05-23T06:05:53.846Z,64.85
2023-05-23T06:06:26.218Z,63.83
2023-05-23T06:06:59.610Z,63.33
2023-05-23T06:07:31.298Z,64.65
2023-05-23T06:08:03.047Z,63.17
2023-05-23T06:08:35.702Z,63.28
2023-05-23T06:09:07.388Z,63.40
2023-05-23T06:09:40.593Z,62.75
2023-05-23T06:10:13.952Z,63.97
2023-05-23T06:10:46.439Z,63.75
2023-05-23T06:11:19.217Z,62.90
2023-05-23T06:11:50.942Z,64.45
2023-05-23T06:12:22.645Z,63.60
2023-05-23T06:12:55.337Z,64.20
2023-05-23T06:13:27.052Z,63.80
2023-05-23T06:14:00.240Z,64.53
2023-05-23T06:14:32.028Z,64.10
2023-05-23T06:15:04.914Z,64.30
2023-05-23T06:15:37.555Z,65.18
2023-05-23T06:16:09.199Z,63.05
2023-05-23T06:16:41.933Z,63.20
2023-05-23T06:17:15.122Z,64.15
2023-05-23T06:17:51.431Z,63.58
2023-05-23T06:18:24.148Z,62.83
2023-05-23T06:18:56.749Z,63.60
2023-05-23T06:19:30.509Z,63.30
2023-05-23T06:20:04.059Z,63.92
2023-05-23T06:20:36.934Z,64.10
2023-05-23T06:21:12.798Z,63.10
2023-05-23T06:21:44.508Z,63.30
2023-05-23T06:22:17.005Z,64.07
2023-05-23T06:22:49.662Z,63.10
2023-05-23T06:23:21.300Z,63.53
2023-05-23T06:23:53.276Z,65.60
2023-05-23T06:24:25.978Z,65.43
2023-05-23T06:24:57.665Z,63.65
2023-05-23T06:25:29.333Z,63.78
2023-05-23T06:26:02.103Z,63.30
2023-05-23T06:26:33.895Z,66.22
2023-05-23T06:27:06.027Z,66.60
2023-05-23T06:27:38.778Z,64.07
2023-05-23T06:28:10.523Z,63.53
2023-05-23T06:28:42.222Z,64.72
2023-05-23T06:29:14.893Z,63.70
2023-05-23T06:29:46.571Z,62.83
2023-05-23T06:30:18.266Z,63.70
2023-05-23T06:30:51.412Z,63.58
2023-05-23T06:31:23.613Z,63.97
2023-05-23T06:31:55.436Z,64.05
2023-05-23T06:32:28.120Z,65.20
2023-05-23T06:33:01.234Z,63.75
2023-05-23T06:33:33.013Z,64.00
2023-05-23T06:34:05.751Z,65.63
2023-05-23T06:34:37.417Z,64.38
2023-05-23T06:35:09.565Z,64.72
2023-05-23T06:35:42.224Z,63.35
2023-05-23T06:36:13.977Z,63.53
2023-05-23T06:36:46.991Z,64.35
2023-05-23T06:37:19.669Z,64.38
2023-05-23T06:37:51.337Z,64.05
2023-05-23T06:38:23.780Z,64.20
2023-05-23T06:38:56.736Z,64.32
2023-05-23T06:39:28.469Z,64.32
2023-05-23T06:40:04.377Z,64.43
2023-05-23T06:40:37.000Z,63.92
2023-05-23T06:41:08.759Z,64.45
2023-05-23T06:41:41.631Z,64.95
2023-05-23T06:42:17.243Z,63.72
2023-05-23T06:43:09.078Z,65.20
2023-05-23T06:43:55.195Z,63.65
2023-05-23T06:44:28.835Z,64.05
2023-05-23T06:45:01.581Z,64.20
2023-05-23T06:45:35.187Z,64.75
2023-05-23T06:46:07.132Z,64.05
2023-05-23T06:46:40.560Z,65.38
2023-05-23T06:47:12.533Z,64.63
2023-05-23T06:47:45.608Z,64.88
2023-05-23T06:48:19.822Z,65.78
2023-05-23T06:49:02.523Z,65.18
2023-05-23T06:49:45.673Z,64.57
2023-05-23T06:50:19.837Z,65.07
2023-05-23T06:50:52.741Z,65.55
2023-05-23T06:51:26.602Z,64.20
2023-05-23T06:51:58.338Z,63.67
2023-05-23T06:52:30.025Z,65.47
2023-05-23T06:53:03.342Z,64.68
2023-05-23T06:53:35.217Z,64.28
2023-05-23T06:54:06.949Z,64.50
2023-05-23T06:54:38.883Z,63.33
2023-05-23T06:55:14.584Z,64.25
2023-05-23T06:55:46.430Z,64.13
2023-05-23T06:56:24.170Z,65.82
2023-05-23T06:57:01.915Z,63.50
2023-05-23T06:57:34.016Z,63.47
2023-05-23T06:58:05.793Z,64.20
2023-05-23T06:58:39.548Z,63.80
2023-05-23T06:59:12.007Z,65.30
2023-05-23T06:59:44.547Z,65.90
2023-05-23T07:00:17.664Z,63.60
2023-05-23T07:01:02.595Z,63.92
2023-05-23T07:01:39.520Z,65.03
2023-05-23T07:02:11.510Z,64.80
2023-05-23T07:02:45.567Z,63.58
2023-05-23T07:03:19.925Z,64.13
2023-05-23T07:03:51.701Z,63.88
2023-05-23T07:04:23.413Z,64.00
2023-05-23T07:04:56.101Z,63.45
2023-05-23T07:05:47.545Z,64.68
2023-05-23T07:06:22.235Z,64.20
2023-05-23T07:06:54.103Z,65.97
2023-05-23T07:07:26.326Z,64.50
2023-05-23T07:07:58.984Z,65.57
2023-05-23T07:08:30.801Z,63.63
2023-05-23T07:09:07.440Z,63.00
2023-05-23T07:09:39.316Z,64.22
2023-05-23T07:10:15.948Z,65.40
2023-05-23T07:10:50.170Z,64.32
2023-05-23T07:11:31.368Z,64.82
2023-05-23T07:12:06.156Z,66.28
2023-05-23T07:12:39.793Z,64.82
2023-05-23T07:13:12.272Z,64.80
2023-05-23T07:13:44.982Z,64.70
2023-05-23T07:14:25.067Z,64.75
2023-05-23T07:14:57.751Z,64.72